createdAt,value
2018-02-06T00:01:34.281Z,20.83
2018-02-06T00:04:02.673Z,21.13
2018-02-06T00:06:31.026Z,27.10
2018-02-06T00:08:59.526Z,26.60
2018-02-06T00:11:28.162Z,23.50
2018-02-06T00:13:56.490Z,20.37
2018-02-06T00:16:24.850Z,23.07
2018-02-06T00:18:53.186Z,21.13
2018-02-06T00:21:21.514Z,20.63
2018-02-06T00:23:50.140Z,18.83
2018-02-06T00:26:19.327Z,18.60
2018-02-06T00:28:47.695Z,21.80
2018-02-06T00:31:16.021Z,21.67
2018-02-06T00:33:44.338Z,23.80
2018-02-06T00:36:13.570Z,23.53
2018-02-06T00:38:41.903Z,21.93
2018-02-06T00:41:10.249Z,33.73
2018-02-06T00:43:38.577Z,18.83
2018-02-06T00:46:06.972Z,17.63
2018-02-06T00:48:35.730Z,31.43
2018-02-06T00:51:04.045Z,33.20
2018-02-06T00:53:32.384Z,22.57
2018-02-06T00:56:01.494Z,26.00
2018-02-06T00:58:29.785Z,23.63
2018-02-06T01:00:58.981Z,18.60
2018-02-06T01:03:27.294Z,14.57
2018-02-06T01:05:56.376Z,19.10
2018-02-06T01:08:24.715Z,20.60
2018-02-06T01:10:53.044Z,22.97
2018-02-06T01:13:21.433Z,23.83
2018-02-06T01:15:49.863Z,16.70
2018-02-06T01:18:18.219Z,21.27
2018-02-06T01:20:46.533Z,24.67
2018-02-06T01:23:14.987Z,18.37
2018-02-06T01:25:43.371Z,34.70
2018-02-06T01:28:11.709Z,20.70
2018-02-06T01:30:40.047Z,24.77
2018-02-06T01:33:08.388Z,21.90
2018-02-06T01:35:36.733Z,23.63
2018-02-06T01:38:05.182Z,19.73
2018-02-06T01:40:34.306Z,24.80
2018-02-06T01:43:02.638Z,24.93
2018-02-06T01:45:30.980Z,22.77
2018-02-06T01:48:00.051Z,24.90
2018-02-06T01:50:28.406Z,21.73
2018-02-06T01:52:56.706Z,21.03
2018-02-06T01:55:25.090Z,15.80
2018-02-06T01:57:53.411Z,22.23
2018-02-06T02:00:21.853Z,19.20
2018-02-06T02:02:50.291Z,23.90
2018-02-06T02:05:18.818Z,20.83
2018-02-06T02:07:47.243Z,18.10
2018-02-06T02:10:15.671Z,23.47
2018-02-06T02:12:43.976Z,21.57
2018-02-06T02:15:12.306Z,36.03
2018-02-06T02:17:41.457Z,20.63
2018-02-06T02:20:09.853Z,26.60
2018-02-06T02:22:38.178Z,24.53
2018-02-06T02:25:06.507Z,20.60
2018-02-06T02:27:34.921Z,23.60
2018-02-06T02:30:03.242Z,25.93
2018-02-06T02:32:31.738Z,26.90
2018-02-06T02:35:00.075Z,22.60
2018-02-06T02:37:28.417Z,25.23
2018-02-06T02:39:56.812Z,22.90
2018-02-06T04:38:43.759Z,40.00
2018-02-06T04:41:12.859Z,21.13
2018-02-06T04:43:41.189Z,19.00
2018-02-06T04:46:09.529Z,21.53
2018-02-06T04:48:37.857Z,23.97
2018-02-06T04:51:06.213Z,22.37
2018-02-06T04:53:34.534Z,22.87
2018-02-06T04:56:02.909Z,23.07
2018-02-06T04:58:32.025Z,33.10
2018-02-06T05:01:01.185Z,21.17
2018-02-06T05:03:29.560Z,21.20
2018-02-06T05:05:57.889Z,21.93
2018-02-06T05:08:26.247Z,25.10
2018-02-06T05:10:54.582Z,33.93
2018-02-06T05:13:22.989Z,21.50
2018-02-06T05:15:52.085Z,19.10
2018-02-06T05:18:20.422Z,22.23
2018-02-06T05:20:48.772Z,23.10
2018-02-06T05:23:17.880Z,21.30
2018-02-06T05:25:47.047Z,26.97
2018-02-06T05:28:15.386Z,22.83
2018-02-06T05:30:44.546Z,19.20
2018-02-06T05:33:12.872Z,20.53
2018-02-06T05:35:41.209Z,25.77
2018-02-06T05:38:09.603Z,18.60
2018-02-06T05:40:37.937Z,22.90
2018-02-06T05:43:06.359Z,19.20
2018-02-06T05:45:35.462Z,17.73
2018-02-06T05:48:04.158Z,19.20
2018-02-06T05:50:32.569Z,16.67
2018-02-06T05:53:00.905Z,22.43
2018-02-06T05:55:29.229Z,88.37
2018-02-06T05:57:58.325Z,18.10
2018-02-06T06:00:26.660Z,24.37
2018-02-06T06:02:55.132Z,46.73
2018-02-06T06:05:23.462Z,23.73
2018-02-06T06:07:51.786Z,19.00
2018-02-06T06:10:20.225Z,31.03
2018-02-06T06:12:48.558Z,25.27
2018-02-06T06:15:16.950Z,30.50
2018-02-06T06:17:45.269Z,79.77
2018-02-06T06:20:13.605Z,26.53
2018-02-06T06:22:41.938Z,23.40
2018-02-06T06:25:10.366Z,27.77
2018-02-06T06:27:39.594Z,24.07
2018-02-06T06:30:07.928Z,20.27
2018-02-06T06:32:36.330Z,28.33
2018-02-06T06:35:04.682Z,24.30
2018-02-06T06:37:33.024Z,19.77
2018-02-06T06:40:01.429Z,21.90
2018-02-06T06:42:30.536Z,19.17
2018-02-06T06:44:59.622Z,39.70
2018-02-06T06:47:27.969Z,22.60
2018-02-06T06:49:56.298Z,22.00
2018-02-06T06:52:24.791Z,28.07
2018-02-06T06:54:53.103Z,32.80
2018-02-06T06:57:22.205Z,30.67
2018-02-06T06:59:50.536Z,36.47
2018-02-06T07:02:18.873Z,56.53
2018-02-06T07:04:47.270Z,27.37
2018-02-06T07:07:15.704Z,27.03
2018-02-06T07:09:44.029Z,34.70
2018-02-06T07:12:12.361Z,29.83
2018-02-06T07:14:41.551Z,33.97
2018-02-06T07:17:09.950Z,22.77
2018-02-06T07:19:38.281Z,17.73
2018-02-06T07:22:06.608Z,28.50
2018-02-06T07:24:34.965Z,24.80
2018-02-06T07:27:03.310Z,23.47
2018-02-06T07:29:31.688Z,18.37
2018-02-06T07:32:00.025Z,25.50
2018-02-06T07:34:29.219Z,25.07
2018-02-06T07:36:57.536Z,25.90
2018-02-06T07:39:25.854Z,27.40
2018-02-06T07:41:54.173Z,19.10
2018-02-06T07:44:22.497Z,26.10
2018-02-06T07:46:51.756Z,23.53
2018-02-06T07:49:20.130Z,32.03
2018-02-06T07:51:48.467Z,22.70
2018-02-06T07:54:16.824Z,24.23
2018-02-06T07:56:45.150Z,20.67
2018-02-06T07:59:13.545Z,24.67
2018-02-06T08:01:41.885Z,26.57
2018-02-06T08:04:10.209Z,25.37
2018-02-06T08:06:38.561Z,22.00
2018-02-06T08:09:06.960Z,23.03
2018-02-06T08:11:35.385Z,18.67
2018-02-06T08:14:03.733Z,26.87
2018-02-06T08:16:32.090Z,19.13
2018-02-06T08:19:00.486Z,18.10
2018-02-06T08:21:29.595Z,25.00
2018-02-06T08:23:58.839Z,19.27
2018-02-06T08:26:27.307Z,18.23
2018-02-06T08:28:56.422Z,19.70
2018-02-06T08:31:24.819Z,32.23
2018-02-06T08:33:53.914Z,23.33
2018-02-06T08:36:23.159Z,20.00
2018-02-06T08:38:51.475Z,27.90
2018-02-06T08:41:19.822Z,22.70
2018-02-06T08:43:48.222Z,27.63
2018-02-06T08:46:16.545Z,22.33
2018-02-06T08:48:45.362Z,18.77
2018-02-06T08:51:14.105Z,22.97
2018-02-06T08:53:42.519Z,22.27
2018-02-06T08:56:10.870Z,17.33
2018-02-06T08:58:39.210Z,18.20
2018-02-06T09:01:07.589Z,21.43
2018-02-06T09:03:35.909Z,17.17
2018-02-06T09:06:04.626Z,24.00
2018-02-06T09:08:33.145Z,25.73
2018-02-06T09:11:01.514Z,24.63
2018-02-06T09:13:29.906Z,38.07
2018-02-06T09:15:58.230Z,23.10
2018-02-06T09:18:27.420Z,17.97
2018-02-06T09:20:55.755Z,21.40
2018-02-06T09:23:24.135Z,24.60
2018-02-06T09:25:52.538Z,24.00
2018-02-06T09:28:20.942Z,18.27
2018-02-06T09:30:49.296Z,22.83
2018-02-06T09:33:17.662Z,22.57
2018-02-06T09:35:46.063Z,22.40
2018-02-06T09:38:14.449Z,22.83
2018-02-06T09:40:42.781Z,22.93
2018-02-06T09:43:11.123Z,18.70
2018-02-06T09:45:39.479Z,21.53
2018-02-06T09:48:07.802Z,22.80
2018-02-06T09:50:36.292Z,19.83
2018-02-06T09:53:04.623Z,22.50
2018-02-06T09:55:33.728Z,17.00
2018-02-06T09:58:02.907Z,17.47
2018-02-06T10:00:31.246Z,18.97
2018-02-06T10:02:59.659Z,17.93
2018-02-06T10:05:28.031Z,20.90
2018-02-06T10:07:56.350Z,18.67
2018-02-06T10:10:24.776Z,15.50
2018-02-06T10:12:53.109Z,22.30
2018-02-06T10:15:21.508Z,18.40
2018-02-06T10:17:49.828Z,19.30
2018-02-06T10:20:18.169Z,26.37
2018-02-06T10:22:46.601Z,20.70
2018-02-06T10:25:14.928Z,22.93
2018-02-06T10:27:43.340Z,20.73
2018-02-06T10:30:12.421Z,20.23
2018-02-06T10:32:40.753Z,18.67
2018-02-06T10:35:09.081Z,18.03
2018-02-06T10:37:37.441Z,20.90
2018-02-06T10:40:05.874Z,22.60
2018-02-06T10:42:34.244Z,19.43
2018-02-06T10:45:02.679Z,18.07
2018-02-06T10:47:31.005Z,16.70
2018-02-06T10:49:59.334Z,21.00
2018-02-06T10:52:27.761Z,18.27
2018-02-06T10:54:56.869Z,14.97
2018-02-06T10:57:25.193Z,19.83
2018-02-06T10:59:53.527Z,16.97
2018-02-06T11:02:21.845Z,17.77
2018-02-06T11:04:50.989Z,17.10
2018-02-06T11:07:19.322Z,20.47
2018-02-06T11:09:47.794Z,23.53
2018-02-06T11:12:16.132Z,21.27
2018-02-06T11:14:45.213Z,15.10
2018-02-06T11:17:13.617Z,13.70
2018-02-06T11:19:41.960Z,17.60
2018-02-06T11:22:10.293Z,14.47
2018-02-06T11:24:38.624Z,18.90
2018-02-06T11:27:07.026Z,15.20
2018-02-06T11:29:35.421Z,14.90
2018-02-06T11:32:03.748Z,19.60
2018-02-06T11:34:32.153Z,14.97
2018-02-06T11:37:00.481Z,14.87
2018-02-06T11:39:29.075Z,16.53
2018-02-06T11:41:58.237Z,16.27
2018-02-06T11:44:26.572Z,12.53
2018-02-06T11:46:55.801Z,14.27
2018-02-06T11:49:24.131Z,17.43
2018-02-06T11:51:52.479Z,15.00
2018-02-06T11:54:20.799Z,17.30
2018-02-06T11:56:49.127Z,17.43
2018-02-06T11:59:18.285Z,18.50
2018-02-06T12:01:46.620Z,18.07
2018-02-06T12:04:14.983Z,17.37
2018-02-06T12:06:43.302Z,18.20
2018-02-06T12:09:11.630Z,16.60
2018-02-06T12:11:40.111Z,15.13
2018-02-06T12:14:09.201Z,20.40
2018-02-06T12:16:37.579Z,18.50
2018-02-06T12:19:05.905Z,19.63
2018-02-06T12:21:35.082Z,20.00
2018-02-06T12:24:03.489Z,19.87
2018-02-06T12:26:31.832Z,20.70
2018-02-06T12:29:00.160Z,17.40
2018-02-06T12:31:28.489Z,21.47
2018-02-06T12:33:56.813Z,23.10
2018-02-06T12:36:25.196Z,19.30
2018-02-06T12:38:53.531Z,19.30
2018-02-06T12:41:21.857Z,22.80
2018-02-06T12:43:50.196Z,18.40
2018-02-06T12:46:18.539Z,17.53
2018-02-06T12:48:46.917Z,18.30
2018-02-06T12:51:16.033Z,24.93
2018-02-06T12:53:44.355Z,18.33
2018-02-06T12:56:12.696Z,18.20
2018-02-06T12:58:41.793Z,18.13
2018-02-06T13:01:10.226Z,16.00
2018-02-06T13:03:38.545Z,19.00
2018-02-06T13:06:06.865Z,14.87
2018-02-06T13:08:35.204Z,20.80
2018-02-06T13:11:03.554Z,19.47
2018-02-06T13:13:32.697Z,21.17
2018-02-06T13:16:01.070Z,22.53
2018-02-06T13:18:30.218Z,16.30
2018-02-06T13:20:58.542Z,18.97
2018-02-06T13:23:26.889Z,22.60
2018-02-06T13:25:55.265Z,23.40
2018-02-06T13:28:23.602Z,28.77
2018-02-06T13:30:51.957Z,23.07
2018-02-06T13:33:20.373Z,18.73
2018-02-06T13:35:48.700Z,20.93
2018-02-06T13:38:17.157Z,22.80
2018-02-06T13:40:45.493Z,20.87
2018-02-06T13:43:14.593Z,22.07
2018-02-06T13:45:42.958Z,17.97
2018-02-06T13:48:11.340Z,23.10
2018-02-06T13:50:39.724Z,23.13
2018-02-06T13:53:08.065Z,20.07
2018-02-06T13:55:36.437Z,25.63
2018-02-06T13:58:04.769Z,19.97
2018-02-06T14:00:33.147Z,21.30
2018-02-06T14:03:02.447Z,25.83
2018-02-06T14:05:30.824Z,24.47
2018-02-06T14:07:59.148Z,20.47
2018-02-06T14:10:28.266Z,22.27
2018-02-06T14:12:56.604Z,21.67
2018-02-06T14:15:25.025Z,25.90
2018-02-06T14:17:53.351Z,23.17
2018-02-06T14:20:21.694Z,24.90
2018-02-06T14:22:50.996Z,19.93
2018-02-06T14:25:19.431Z,29.43
2018-02-06T14:27:48.671Z,28.03
2018-02-06T14:30:17.011Z,24.30
2018-02-06T14:32:45.379Z,21.47
2018-02-06T14:35:13.723Z,22.63
2018-02-06T14:37:44.900Z,23.73
2018-02-06T14:40:13.671Z,24.87
2018-02-06T14:42:41.986Z,25.13
2018-02-06T14:45:10.381Z,27.30
2018-02-06T14:47:38.711Z,25.97
2018-02-06T14:50:07.056Z,24.67
2018-02-06T14:52:35.543Z,25.50
2018-02-06T14:55:04.657Z,23.50
2018-02-06T14:57:33.007Z,23.73
2018-02-06T15:00:01.454Z,22.33
2018-02-06T15:02:29.798Z,27.70
2018-02-06T15:04:58.196Z,32.03
2018-02-06T15:07:26.547Z,25.60
2018-02-06T15:09:54.874Z,21.50
2018-02-06T15:12:23.255Z,30.27
2018-02-06T15:14:51.604Z,34.83
2018-02-06T15:17:19.998Z,26.33
2018-02-06T15:19:48.324Z,24.70
2018-02-06T15:22:16.666Z,25.63
2018-02-06T15:24:45.006Z,28.93
2018-02-06T15:27:13.364Z,31.43
2018-02-06T15:29:41.748Z,25.50
2018-02-06T15:32:10.086Z,25.87
2018-02-06T15:34:38.413Z,28.30
2018-02-06T15:37:06.747Z,31.63
2018-02-06T15:39:35.086Z,23.03
2018-02-06T15:42:04.278Z,26.63
2018-02-06T15:44:32.615Z,25.40
2018-02-06T15:47:00.972Z,28.90
2018-02-06T15:49:30.067Z,25.03
2018-02-06T15:51:58.411Z,36.07
2018-02-06T15:54:26.818Z,26.20
2018-02-06T15:56:55.158Z,25.70
2018-02-06T15:59:24.257Z,27.10
2018-02-06T16:01:53.359Z,31.07
2018-02-06T16:04:21.713Z,29.90
2018-02-06T16:06:50.107Z,27.33
2018-02-06T16:09:18.432Z,25.43
2018-02-06T16:11:46.800Z,25.53
2018-02-06T16:14:15.130Z,24.83
2018-02-06T16:16:44.318Z,26.53
2018-02-06T16:19:12.743Z,29.90
2018-02-06T16:21:41.925Z,28.70
2018-02-06T16:24:10.335Z,24.07
2018-02-06T16:26:39.578Z,29.10
2018-02-06T16:29:07.904Z,25.70
2018-02-06T16:31:36.302Z,30.10
2018-02-06T16:34:04.641Z,28.13
2018-02-06T16:36:32.993Z,22.97
2018-02-06T16:39:01.343Z,25.50
2018-02-06T16:41:29.673Z,26.93
2018-02-06T16:43:58.071Z,76.67
2018-02-06T16:46:26.397Z,29.97
2018-02-06T16:48:54.745Z,28.77
2018-02-06T16:51:23.144Z,31.27
2018-02-06T16:53:51.490Z,53.97
2018-02-06T16:56:20.073Z,29.07
2018-02-06T16:58:49.418Z,25.03
2018-02-06T17:01:17.855Z,27.20
2018-02-06T17:03:46.995Z,29.33
2018-02-06T17:06:15.331Z,28.07
2018-02-06T17:08:43.723Z,32.93
2018-02-06T17:11:12.093Z,24.37
2018-02-06T17:13:40.405Z,28.30
2018-02-06T17:16:08.918Z,28.50
2018-02-06T17:18:37.295Z,29.63
2018-02-06T17:21:05.680Z,28.50
2018-02-06T17:23:34.306Z,28.23
2018-02-06T17:26:02.939Z,23.00
2018-02-06T17:28:32.091Z,32.40
2018-02-06T17:31:00.540Z,34.03
2018-02-06T17:33:29.820Z,32.23
2018-02-06T17:35:59.049Z,26.93
2018-02-06T17:38:27.565Z,26.40
2018-02-06T17:40:55.894Z,26.97
2018-02-06T17:43:24.297Z,28.40
2018-02-06T17:45:52.634Z,28.53
2018-02-06T17:48:21.050Z,33.40
2018-02-06T17:50:49.437Z,27.33
2018-02-06T17:53:17.758Z,30.17
2018-02-06T17:55:46.151Z,27.50
2018-02-06T17:58:14.566Z,29.07
2018-02-06T18:00:42.954Z,33.57
2018-02-06T18:03:12.240Z,36.97
2018-02-06T18:05:40.568Z,29.63
2018-02-06T18:08:09.677Z,28.03
2018-02-06T18:10:38.864Z,28.07
2018-02-06T18:13:07.186Z,30.93
2018-02-06T18:15:36.358Z,30.23
2018-02-06T18:18:04.787Z,29.23
2018-02-06T18:20:33.975Z,28.30
2018-02-06T18:23:03.096Z,35.53
2018-02-06T18:25:32.201Z,32.60
2018-02-06T18:28:00.658Z,36.30
2018-02-06T18:30:29.001Z,33.00
2018-02-06T18:32:58.117Z,29.13
2018-02-06T18:35:26.505Z,31.83
2018-02-06T18:37:54.851Z,35.30
2018-02-06T18:40:23.276Z,30.10
2018-02-06T18:42:52.896Z,31.23
2018-02-06T18:45:22.443Z,29.37
2018-02-06T18:47:51.130Z,29.37
2018-02-06T18:50:19.846Z,29.67
2018-02-06T18:52:49.353Z,32.83
2018-02-06T18:55:17.742Z,29.90
2018-02-06T18:57:47.662Z,34.33
2018-02-06T19:00:16.282Z,36.80
2018-02-06T19:02:45.003Z,37.40
2018-02-06T19:05:13.792Z,38.20
2018-02-06T19:07:42.534Z,36.20
2018-02-06T19:10:11.032Z,32.40
2018-02-06T19:12:40.623Z,32.50
2018-02-06T19:15:09.416Z,34.80
2018-02-06T19:17:38.525Z,32.87
2018-02-06T19:20:07.152Z,31.33
2018-02-06T19:22:36.294Z,32.63
2018-02-06T19:25:05.386Z,42.00
2018-02-06T19:27:33.726Z,39.17
2018-02-06T19:30:02.158Z,33.53
2018-02-06T19:32:30.494Z,40.60
2018-02-06T19:34:58.917Z,35.00
2018-02-06T19:37:27.258Z,39.27
2018-02-06T19:39:56.382Z,38.57
2018-02-06T19:42:24.831Z,38.67
2018-02-06T19:44:53.180Z,41.70
2018-02-06T19:47:21.512Z,44.70
2018-02-06T19:49:49.857Z,36.53
2018-02-06T19:52:18.217Z,34.73
2018-02-06T19:54:46.713Z,33.50
2018-02-06T19:57:15.803Z,38.93
2018-02-06T19:59:44.162Z,41.60
2018-02-06T20:02:12.502Z,37.17
2018-02-06T20:04:40.851Z,39.17
2018-02-06T20:07:09.313Z,36.87
2018-02-06T20:09:37.666Z,34.90
2018-02-06T20:12:05.992Z,41.07
2018-02-06T20:14:34.351Z,39.30
2018-02-06T20:17:02.742Z,41.43
2018-02-06T20:19:31.131Z,37.90
2018-02-06T20:21:59.497Z,38.60
2018-02-06T20:24:27.931Z,41.63
2018-02-06T20:26:57.038Z,34.63
2018-02-06T20:29:26.393Z,45.50
2018-02-06T20:31:54.847Z,33.53
2018-02-06T20:34:23.219Z,34.83
2018-02-06T20:36:51.554Z,32.30
2018-02-06T20:39:19.910Z,60.40
2018-02-06T20:41:48.242Z,37.80
2018-02-06T20:44:16.650Z,38.50
2018-02-06T20:46:44.977Z,35.93
2018-02-06T20:49:13.296Z,34.13
2018-02-06T20:51:42.473Z,34.83
2018-02-06T20:54:10.811Z,33.47
2018-02-06T20:56:39.138Z,37.40
2018-02-06T20:59:07.474Z,33.10
2018-02-06T21:01:36.658Z,35.23
2018-02-06T21:04:05.080Z,55.03
2018-02-06T21:06:34.376Z,42.70
2018-02-06T21:09:02.970Z,37.60
2018-02-06T21:11:31.317Z,36.57
2018-02-06T21:13:59.674Z,39.17
2018-02-06T21:16:28.848Z,40.40
2018-02-06T21:18:57.186Z,40.77
2018-02-06T21:21:25.512Z,47.90
2018-02-06T21:23:53.905Z,36.47
2018-02-06T21:26:22.230Z,40.47
2018-02-06T21:28:50.612Z,43.67
2018-02-06T21:31:19.017Z,43.00
2018-02-06T21:33:47.349Z,46.33
2018-02-06T21:36:15.771Z,41.10
2018-02-06T21:38:44.111Z,40.87
2018-02-06T21:41:12.451Z,45.67
2018-02-06T21:43:40.839Z,38.97
2018-02-06T21:46:09.173Z,44.33
2018-02-06T21:48:37.525Z,40.07
2018-02-06T21:51:05.870Z,55.67
2018-02-06T21:53:34.982Z,43.27
2018-02-06T21:56:04.154Z,42.47
2018-02-06T21:58:32.507Z,45.30
2018-02-06T22:01:00.841Z,41.40
2018-02-06T22:03:29.210Z,45.97
2018-02-06T22:05:57.601Z,42.93
2018-02-06T22:08:26.011Z,40.90
2018-02-06T22:10:54.353Z,40.30
2018-02-06T22:13:22.695Z,43.00
2018-02-06T22:15:51.030Z,40.97
2018-02-06T22:18:19.357Z,53.00
2018-02-06T22:20:47.740Z,42.63
2018-02-06T22:23:16.075Z,45.53
2018-02-06T22:25:44.472Z,40.30
2018-02-06T22:28:13.572Z,44.40
2018-02-06T22:30:41.946Z,39.57
2018-02-06T22:33:10.273Z,46.20
2018-02-06T22:35:39.378Z,40.60
2018-02-06T22:38:07.713Z,42.60
2018-02-06T22:40:36.057Z,45.10
2018-02-06T22:43:05.228Z,47.20
2018-02-06T22:45:33.722Z,42.77
2018-02-06T22:48:02.707Z,42.23
2018-02-06T22:50:31.244Z,50.87
2018-02-06T22:52:59.567Z,38.30
2018-02-06T22:55:28.661Z,43.70
2018-02-06T22:57:57.812Z,47.90
2018-02-06T23:00:26.218Z,46.23
2018-02-06T23:02:54.564Z,44.70
2018-02-06T23:05:23.658Z,46.23
2018-02-06T23:07:52.003Z,37.27
2018-02-06T23:10:20.401Z,46.67
2018-02-06T23:12:48.743Z,41.60
2018-02-06T23:15:17.837Z,43.70
2018-02-06T23:17:46.945Z,44.47
2018-02-06T23:20:15.273Z,48.00
2018-02-06T23:22:43.838Z,42.40
2018-02-06T23:25:12.137Z,45.73
2018-02-06T23:27:41.242Z,46.23
2018-02-06T23:30:10.447Z,46.60
2018-02-06T23:32:39.563Z,47.37
2018-02-06T23:35:07.962Z,45.20
2018-02-06T23:37:37.147Z,41.87
2018-02-06T23:40:05.473Z,51.77
2018-02-06T23:42:34.575Z,48.90
2018-02-06T23:45:03.725Z,44.30
2018-02-06T23:47:32.145Z,48.50
2018-02-06T23:50:00.580Z,46.57
2018-02-06T23:52:28.986Z,45.60
2018-02-06T23:54:57.311Z,44.40
2018-02-06T23:57:25.650Z,47.00
2018-02-06T23:59:54.053Z,44.17
